»·PEaware :: N822JH KMMH-KBUR

N822JH :: KMMH-KBUR

FLIGHT INFORMATION

Flight Status: Arrived
Operator: Privately registered:
United States
More flights under this callsign
Pilot: Anonymous 23149 (23149)
Aircraft: PIPER PA-24 COMMANCHE
(PA24)
More flights by this aircraft type
Origin: KMMH Mammoth Yosemite
United States
Destination: KBUR Bob Hope-Burbank
United States
More flights between these airports :: More routes between these airports
Route: +FRA V459 SAUGS V165 VALEY
File this flight plan on PilotEdge
Remarks:
Altitude:
(Current/Filed)
11,000ft
Speed:
(Current/Filed)
162kts
Departed: 09-Sep-19 09:41 AM
Arrived: 09-Sep-19 11:20 AM
Distance/Time
Traveled:
207nm/1:38
Distance/Time
To Go:
Arrived

Flight Plot

Page will automatically refresh every two minutes.

Flight plan parsing failed; only flown route is shown


Map Options




Map Legend


Flown Route
Filed Route
Departure Airport
Arrival Airport
Navaid (VOR, NDB)
Fix

Horizontal Profiles

Position Reports

Time Latitude Longitude Heading Altitude Ground
Speed
09-Sep-19 08:56 37.626611 -118.841439 68 7131ft 0kts
09-Sep-19 08:57 37.626611 -118.841439 68 7131ft 0kts
09-Sep-19 08:58 37.626611 -118.841439 68 7131ft 0kts
09-Sep-19 08:59 37.626611 -118.841439 68 7131ft 0kts
09-Sep-19 09:00 37.626611 -118.841439 68 7131ft 0kts
09-Sep-19 09:01 37.626611 -118.841439 68 7131ft 0kts
09-Sep-19 09:02 37.626611 -118.841439 68 7131ft 0kts
09-Sep-19 09:03 37.626612 -118.841437 68 7131ft 0kts
09-Sep-19 09:04 37.626613 -118.841434 68 7131ft 0kts
09-Sep-19 09:05 37.626614 -118.841431 68 7131ft 0kts
09-Sep-19 09:06 37.626615 -118.841428 68 7131ft 0kts
09-Sep-19 09:07 37.626616 -118.841424 68 7131ft 0kts
09-Sep-19 09:08 37.626617 -118.841421 68 7131ft 0kts
09-Sep-19 09:09 37.626618 -118.841418 68 7131ft 0kts
09-Sep-19 09:10 37.626619 -118.841415 68 7131ft 0kts
09-Sep-19 09:11 37.626620 -118.841411 68 7131ft 0kts
09-Sep-19 09:12 37.626621 -118.841408 68 7131ft 0kts
09-Sep-19 09:13 37.626622 -118.841405 68 7131ft 0kts
09-Sep-19 09:14 37.626623 -118.841401 68 7131ft 0kts
09-Sep-19 09:15 37.626624 -118.841398 68 7131ft 0kts
09-Sep-19 09:16 37.626625 -118.841395 68 7131ft 0kts
09-Sep-19 09:17 37.626626 -118.841391 68 7131ft 0kts
09-Sep-19 09:18 37.626627 -118.841388 68 7131ft 0kts
09-Sep-19 09:19 37.626628 -118.841384 68 7131ft 0kts
09-Sep-19 09:20 37.626629 -118.841381 68 7131ft 0kts
09-Sep-19 09:21 37.626630 -118.841378 68 7131ft 0kts
09-Sep-19 09:22 37.626631 -118.841374 68 7131ft 0kts
09-Sep-19 09:24 37.626632 -118.841371 68 7131ft 0kts
09-Sep-19 09:25 37.626633 -118.841368 68 7131ft 0kts
09-Sep-19 09:26 37.626634 -118.841364 68 7131ft 0kts
09-Sep-19 09:27 37.626635 -118.841361 68 7131ft 0kts
09-Sep-19 09:28 37.626636 -118.841357 68 7131ft 0kts
09-Sep-19 09:29 37.626637 -118.841354 68 7131ft 0kts
09-Sep-19 09:30 37.626638 -118.841351 68 7131ft 0kts
09-Sep-19 09:31 37.626639 -118.841347 68 7131ft 0kts
09-Sep-19 09:32 37.626641 -118.841343 68 7131ft 0kts
09-Sep-19 09:33 37.625705 -118.841698 111 7131ft 7kts
09-Sep-19 09:34 37.624327 -118.836615 109 7131ft 21kts
09-Sep-19 09:35 37.622152 -118.828720 109 7131ft 21kts
09-Sep-19 09:36 37.622077 -118.827768 128 7131ft 0kts
09-Sep-19 09:37 37.622069 -118.827757 128 7131ft 0kts
09-Sep-19 09:38 37.621417 -118.827235 200 7131ft 0kts
09-Sep-19 09:39 37.621401 -118.827242 199 7131ft 0kts
09-Sep-19 09:40 37.620995 -118.827588 266 7131ft 6kts
09-Sep-19 09:41 37.626296 -118.848988 283 7416ft 106kts
09-Sep-19 09:41 37.631764 -118.880404 309 8295ft 115kts
09-Sep-19 09:43 37.660666 -118.868560 82 9572ft 106kts
09-Sep-19 09:44 37.650970 -118.828123 108 10315ft 121kts
09-Sep-19 09:44 37.640359 -118.796627 116 11218ft 107kts
09-Sep-19 09:46 37.619911 -118.765656 193 12025ft 108kts
09-Sep-19 09:47 37.596581 -118.786824 218 12729ft 107kts
09-Sep-19 09:47 37.570217 -118.798793 199 13077ft 127kts
09-Sep-19 09:49 37.529467 -118.809066 202 13750ft 129kts
09-Sep-19 09:49 37.499643 -118.821409 209 13847ft 138kts
09-Sep-19 09:50 37.467262 -118.851337 232 14053ft 156kts
09-Sep-19 09:51 37.439290 -118.892481 227 13638ft 150kts
09-Sep-19 09:52 37.412745 -118.932236 232 12577ft 150kts
09-Sep-19 09:53 37.389002 -118.973912 237 12389ft 140kts
09-Sep-19 09:54 37.366795 -119.014417 238 12403ft 136kts
09-Sep-19 09:55 37.354128 -119.057816 282 12321ft 140kts
09-Sep-19 09:56 37.365316 -119.105281 283 12386ft 149kts
09-Sep-19 09:57 37.368527 -119.153958 262 12413ft 139kts
09-Sep-19 09:58 37.364446 -119.203961 260 12423ft 146kts
09-Sep-19 09:59 37.355533 -119.251942 247 12416ft 139kts
09-Sep-19 10:00 37.340749 -119.296740 247 12397ft 138kts
09-Sep-19 10:01 37.326298 -119.341341 249 12368ft 129kts
09-Sep-19 10:02 37.307154 -119.379429 234 11660ft 133kts
09-Sep-19 10:03 37.278486 -119.413694 220 10574ft 155kts
09-Sep-19 10:04 37.245419 -119.447614 221 10567ft 150kts
09-Sep-19 10:05 37.214077 -119.480944 223 10550ft 145kts
09-Sep-19 10:06 37.181581 -119.515270 220 10549ft 156kts
09-Sep-19 10:07 37.147924 -119.550909 219 10543ft 158kts
09-Sep-19 10:08 37.115125 -119.583966 224 10531ft 146kts
09-Sep-19 10:09 37.076186 -119.579542 165 10545ft 151kts
09-Sep-19 10:10 37.036188 -119.561233 161 10532ft 151kts
09-Sep-19 10:11 36.995386 -119.541505 162 10521ft 159kts
09-Sep-19 10:12 36.953958 -119.521585 164 10519ft 160kts
09-Sep-19 10:13 36.910855 -119.500856 160 10524ft 168kts
09-Sep-19 10:14 36.868571 -119.479611 162 10526ft 161kts
09-Sep-19 10:15 36.824688 -119.459228 164 10528ft 169kts
09-Sep-19 10:16 36.780641 -119.437330 158 10529ft 169kts
09-Sep-19 10:17 36.737442 -119.415369 163 10527ft 165kts
09-Sep-19 10:18 36.694913 -119.395350 164 10523ft 161kts
09-Sep-19 10:19 36.653053 -119.375480 164 10524ft 161kts
09-Sep-19 10:20 36.611248 -119.355166 160 10525ft 162kts
09-Sep-19 10:21 36.569381 -119.334261 166 10525ft 161kts
09-Sep-19 10:22 36.527255 -119.315173 164 10525ft 161kts
09-Sep-19 10:23 36.484270 -119.293870 163 10528ft 167kts
09-Sep-19 10:24 36.441460 -119.273227 159 10527ft 163kts
09-Sep-19 10:25 36.397534 -119.251328 159 10530ft 172kts
09-Sep-19 10:26 36.354359 -119.230642 160 10527ft 164kts
09-Sep-19 10:27 36.310314 -119.210288 161 10529ft 170kts
09-Sep-19 10:28 36.265238 -119.189199 162 10529ft 171kts
09-Sep-19 10:29 36.221260 -119.167140 161 10530ft 169kts
09-Sep-19 10:30 36.176476 -119.145555 165 10528ft 170kts
09-Sep-19 10:31 36.133196 -119.124711 164 10525ft 164kts
09-Sep-19 10:32 36.088846 -119.103513 161 10525ft 171kts
09-Sep-19 10:33 36.045553 -119.083116 165 10523ft 162kts
09-Sep-19 10:34 36.002375 -119.061113 164 10523ft 167kts
09-Sep-19 10:35 35.957447 -119.041232 161 10524ft 170kts
09-Sep-19 10:36 35.912771 -119.019703 163 10526ft 171kts
09-Sep-19 10:37 35.866623 -119.003246 166 10525ft 170kts
09-Sep-19 10:38 35.822227 -118.986264 167 10523ft 164kts
09-Sep-19 10:39 35.782015 -118.972598 171 10524ft 165kts
09-Sep-19 10:40 35.740174 -118.957803 166 10526ft 170kts
09-Sep-19 10:41 35.694608 -118.940809 167 10525ft 168kts
09-Sep-19 10:42 35.649438 -118.924354 164 10524ft 167kts
09-Sep-19 10:43 35.604030 -118.907457 167 10524ft 169kts
09-Sep-19 10:44 35.558922 -118.890994 164 10523ft 167kts
09-Sep-19 10:45 35.514567 -118.874980 166 10523ft 164kts
09-Sep-19 10:46 35.469883 -118.859433 162 10523ft 166kts
09-Sep-19 10:47 35.424887 -118.842235 165 10525ft 168kts
09-Sep-19 10:48 35.380950 -118.827003 169 10528ft 160kts
09-Sep-19 10:49 35.338292 -118.811456 166 10531ft 159kts
09-Sep-19 10:50 35.295594 -118.796464 168 10539ft 159kts
09-Sep-19 10:51 35.250855 -118.780537 166 10551ft 168kts
09-Sep-19 10:52 35.206014 -118.764023 165 10560ft 166kts
09-Sep-19 10:53 35.161783 -118.747509 164 10571ft 165kts
09-Sep-19 10:54 35.118455 -118.732168 165 10588ft 160kts
09-Sep-19 10:55 35.074636 -118.716577 165 10596ft 164kts
09-Sep-19 10:56 35.030785 -118.699927 168 10595ft 163kts
09-Sep-19 10:57 34.987607 -118.684684 169 10594ft 159kts
09-Sep-19 10:58 34.945090 -118.669189 167 10595ft 159kts
09-Sep-19 10:59 34.904270 -118.654833 166 9644ft 161kts
09-Sep-19 11:00 34.859806 -118.638634 166 9632ft 169kts
09-Sep-19 11:01 34.814762 -118.623149 165 9620ft 158kts
09-Sep-19 11:02 34.771219 -118.607377 161 9635ft 165kts
09-Sep-19 11:03 34.726471 -118.591787 165 9635ft 164kts
09-Sep-19 11:04 34.682658 -118.577027 165 9615ft 159kts
09-Sep-19 11:05 34.643513 -118.554091 155 9588ft 153kts
09-Sep-19 11:06 34.606836 -118.532689 155 7651ft 138kts
09-Sep-19 11:07 34.572894 -118.512180 156 6925ft 123kts
09-Sep-19 11:08 34.541561 -118.493626 152 7383ft 149kts
09-Sep-19 11:09 34.502894 -118.471287 155 7423ft 165kts
09-Sep-19 11:10 34.462364 -118.454388 161 7479ft 152kts
09-Sep-19 11:11 34.421801 -118.438536 163 7494ft 152kts
09-Sep-19 11:12 34.384696 -118.424417 162 7488ft 156kts
09-Sep-19 11:13 34.350075 -118.409161 157 6798ft 120kts
09-Sep-19 11:14 34.318965 -118.392445 156 5514ft 127kts
09-Sep-19 11:15 34.285734 -118.379465 169 3629ft 121kts
09-Sep-19 11:16 34.253935 -118.371682 168 2189ft 103kts
09-Sep-19 11:17 34.230026 -118.365328 167 1313ft 75kts
09-Sep-19 11:18 34.210054 -118.359842 165 743ft 70kts
09-Sep-19 11:19 34.202949 -118.358340 236 724ft 9kts
09-Sep-19 11:20 34.202861 -118.358687 255 724ft 3kts
09-Sep-19 11:21 34.199987 -118.358482 234 724ft 11kts
09-Sep-19 11:22 34.199623 -118.360332 351 724ft 0kts
09-Sep-19 11:23 34.199623 -118.360332 351 724ft 0kts

Navigation Log

Ident Type
Flight plan parsing failed, navigation log unavailable